Time;durP1;ratioP1;P1;durP2;ratioP2;P2;SDS_P1;SDS_P2;PMS_P1;PMS_P2;Temp;Humidity;BMP_temperature;BMP_pressure;BME280_temperature;BME280_humidity;BME280_pressure;Samples;Min_cycle;Max_cycle;Signal;HPM_P1;HPM_P2
2023/02/23 00:01:36;;;;;;;52.17;28.65;;;10.80;99.90;;;;;;5092302;28;20170;-79
2023/02/23 00:04:03;;;;;;;50.58;27.67;;;10.80;99.90;;;;;;5074036;28;20193;-78
2023/02/23 00:06:31;;;;;;;47.90;27.95;;;10.90;99.90;;;;;;5092473;28;20168;-78
2023/02/23 00:08:59;;;;;;;49.72;28.90;;;10.90;99.90;;;;;;5092327;28;20670;-79
2023/02/23 00:11:26;;;;;;;56.70;29.50;;;11.00;99.90;;;;;;5074138;28;20169;-78
2023/02/23 00:13:55;;;;;;;51.45;27.73;;;11.00;99.90;;;;;;5074088;28;20285;-79
2023/02/23 00:16:23;;;;;;;55.25;30.20;;;11.00;99.90;;;;;;5092238;28;20292;-79
2023/02/23 00:18:50;;;;;;;49.83;27.88;;;11.00;99.90;;;;;;5093507;28;20173;-79
2023/02/23 00:21:24;;;;;;;61.50;28.13;;;10.90;99.90;;;;;;5095527;28;20537;-79
2023/02/23 00:23:56;;;;;;;54.00;26.73;;;10.90;99.90;;;;;;5095708;28;20173;-78
2023/02/23 00:26:24;;;;;;;52.00;27.60;;;10.90;99.90;;;;;;5095852;28;20631;-78
2023/02/23 00:28:50;;;;;;;44.22;25.90;;;10.80;99.90;;;;;;5078130;28;20300;-81
2023/02/23 00:31:16;;;;;;;48.78;27.02;;;10.80;99.90;;;;;;5096311;28;20162;-84
2023/02/23 00:33:42;;;;;;;46.28;27.00;;;10.80;99.90;;;;;;5095927;28;20222;-84
2023/02/23 00:36:13;;;;;;;46.10;26.92;;;11.00;99.90;;;;;;5095989;28;20247;-85
2023/02/23 00:38:40;;;;;;;45.72;24.88;;;10.90;99.90;;;;;;5095665;28;20177;-82
2023/02/23 00:41:11;;;;;;;46.10;25.63;;;10.90;99.90;;;;;;5077958;28;20161;-85
2023/02/23 00:43:48;;;;;;;44.15;25.80;;;10.60;99.90;;;;;;5095662;28;20264;-78
2023/02/23 00:46:16;;;;;;;48.20;26.75;;;10.70;99.90;;;;;;5095367;28;20165;-79
2023/02/23 00:48:43;;;;;;;43.88;23.92;;;10.80;99.90;;;;;;5095142;28;20304;-79
2023/02/23 00:51:10;;;;;;;36.67;23.65;;;10.80;99.90;;;;;;5095439;28;20249;-79
2023/02/23 00:53:36;;;;;;;42.53;23.98;;;11.00;99.90;;;;;;5095300;28;20197;-79
2023/02/23 00:56:06;;;;;;;32.50;21.70;;;10.80;99.90;;;;;;5077350;28;20541;-78
2023/02/23 00:58:32;;;;;;;34.30;22.20;;;10.70;99.90;;;;;;5095359;28;20522;-80
2023/02/23 01:01:00;;;;;;;41.30;22.63;;;10.60;99.90;;;;;;5095416;28;20170;-79
2023/02/23 01:03:28;;;;;;;35.85;22.42;;;10.60;99.90;;;;;;5095120;28;20186;-80
2023/02/23 01:05:58;;;;;;;40.70;22.38;;;10.70;99.90;;;;;;5095475;28;20166;-80
2023/02/23 01:08:23;;;;;;;37.47;22.75;;;10.50;99.90;;;;;;5077059;28;20213;-79
2023/02/23 01:10:52;;;;;;;39.08;21.23;;;10.50;99.90;;;;;;5095029;28;20245;-80
2023/02/23 01:13:19;;;;;;;37.50;22.23;;;10.50;99.90;;;;;;5094959;28;20186;-78
2023/02/23 01:15:46;;;;;;;40.22;22.50;;;10.60;99.90;;;;;;5094908;28;20155;-79
2023/02/23 01:18:13;;;;;;;38.92;23.23;;;10.70;99.90;;;;;;5094946;28;20177;-78
2023/02/23 01:20:42;;;;;;;36.50;22.73;;;10.70;99.90;;;;;;5094432;28;20173;-78
2023/02/23 01:23:09;;;;;;;42.70;23.77;;;10.60;99.90;;;;;;5094778;28;20658;-79
2023/02/23 01:25:34;;;;;;;40.30;23.30;;;10.50;99.90;;;;;;5094947;28;20634;-80
2023/02/23 01:28:00;;;;;;;41.67;24.67;;;10.60;99.90;;;;;;5094548;28;20198;-79
2023/02/23 01:30:26;;;;;;;41.10;23.17;;;10.50;99.90;;;;;;5093849;28;20170;-79
2023/02/23 01:32:52;;;;;;;39.78;23.20;;;10.60;99.90;;;;;;5094517;28;20566;-78
2023/02/23 01:35:18;;;;;;;35.78;23.40;;;10.70;99.90;;;;;;5094734;28;20166;-78
2023/02/23 01:37:43;;;;;;;43.03;24.60;;;10.60;99.90;;;;;;5094589;28;20188;-79
2023/02/23 01:40:18;;;;;;;50.78;24.35;;;10.60;99.90;;;;;;5094653;28;20636;-79
2023/02/23 01:42:45;;;;;;;48.75;25.75;;;10.50;99.90;;;;;;5094488;28;20212;-79
2023/02/23 01:45:23;;;;;;;48.45;25.65;;;10.60;99.90;;;;;;5094500;28;20166;-79
2023/02/23 01:47:53;;;;;;;41.95;24.38;;;10.70;99.90;;;;;;5076055;28;20715;-79
2023/02/23 01:50:19;;;;;;;45.65;25.33;;;10.70;99.90;;;;;;5094044;28;20216;-79
2023/02/23 01:52:48;;;;;;;48.65;25.67;;;10.60;99.90;;;;;;5094181;28;20189;-79
2023/02/23 01:55:21;;;;;;;47.20;26.70;;;10.60;99.90;;;;;;5094283;28;20223;-79
2023/02/23 01:57:46;;;;;;;49.13;26.58;;;10.50;99.90;;;;;;5094216;28;20166;-79
2023/02/23 02:00:13;;;;;;;52.55;27.50;;;10.60;99.90;;;;;;5093990;28;20185;-79
2023/02/23 02:02:40;;;;;;;55.92;27.13;;;10.60;99.90;;;;;;5093807;28;20196;-79
2023/02/23 02:05:12;;;;;;;50.00;26.30;;;10.60;99.90;;;;;;5093977;28;20173;-78
2023/02/23 02:07:40;;;;;;;49.88;25.52;;;10.50;99.90;;;;;;5093963;28;20236;-79
2023/02/23 02:12:37;;;;;;;62.25;27.95;;;10.60;99.90;;;;;;5094013;28;20190;-79
2023/02/23 02:17:45;;;;;;;57.95;28.25;;;10.40;99.90;;;;;;5093752;28;20224;-80
2023/02/23 02:20:49;;;;;;;59.28;29.83;;;10.50;99.90;;;;;;5093714;28;20631;-79
2023/02/23 02:23:49;;;;;;;58.35;29.42;;;10.60;99.90;;;;;;5093462;28;20239;-79
2023/02/23 02:26:29;;;;;;;59.47;28.67;;;10.60;99.90;;;;;;5093510;28;20172;-79
2023/02/23 02:29:11;;;;;;;67.07;29.98;;;10.60;99.90;;;;;;5093451;28;20206;-79
2023/02/23 02:32:01;;;;;;;62.95;29.58;;;10.60;99.90;;;;;;5093600;28;20615;-79
2023/02/23 02:34:58;;;;;;;68.53;30.73;;;10.70;99.90;;;;;;5093308;28;20165;-79
2023/02/23 02:37:49;;;;;;;68.70;28.80;;;10.80;99.90;;;;;;5074766;28;20177;-79
2023/02/23 02:40:28;;;;;;;66.43;30.33;;;10.80;99.90;;;;;;5055304;28;20260;-79
2023/02/23 02:43:28;;;;;;;70.10;29.98;;;10.70;99.90;;;;;;5093265;28;20534;-78
2023/02/23 02:45:56;;;;;;;69.90;30.58;;;10.60;99.90;;;;;;5020944;28;20727;-79
2023/02/23 02:48:32;;;;;;;71.68;30.58;;;10.80;99.90;;;;;;5092919;28;20197;-79
2023/02/23 02:51:22;;;;;;;74.60;30.05;;;10.80;99.90;;;;;;5093260;28;20173;-79
2023/02/23 02:54:19;;;;;;;76.07;29.00;;;10.70;99.90;;;;;;5093099;28;20182;-79
2023/02/23 02:56:47;;;;;;;77.57;32.13;;;10.60;99.90;;;;;;5087103;28;20173;-79
2023/02/23 04:19:54;;;;;;;66.25;27.80;;;9.90;99.90;;;;;;5096007;28;20165;-79
2023/02/23 04:22:20;;;;;;;64.22;26.98;;;9.90;99.90;;;;;;5095738;28;20300;-79
2023/02/23 04:24:46;;;;;;;61.97;28.80;;;10.00;99.90;;;;;;5095609;28;20166;-80
2023/02/23 04:27:13;;;;;;;68.85;28.00;;;10.20;99.90;;;;;;5095709;28;20698;-79
2023/02/23 04:29:39;;;;;;;63.20;29.38;;;10.10;99.90;;;;;;5095696;28;20205;-80
2023/02/23 04:32:06;;;;;;;65.80;28.52;;;10.10;99.90;;;;;;5095690;28;20196;-79
2023/02/23 04:34:32;;;;;;;67.70;29.17;;;10.10;99.90;;;;;;5095723;28;20253;-79
2023/02/23 04:36:58;;;;;;;65.63;27.45;;;10.10;99.90;;;;;;5077422;28;20548;-78
2023/02/23 04:39:23;;;;;;;67.57;27.60;;;9.90;99.90;;;;;;5077342;28;20231;-79
2023/02/23 04:41:49;;;;;;;65.03;28.52;;;9.90;99.90;;;;;;5095499;28;20654;-78
2023/02/23 04:44:16;;;;;;;59.70;26.83;;;10.00;99.90;;;;;;5095192;28;20198;-79
2023/02/23 04:46:42;;;;;;;60.63;28.77;;;10.00;99.90;;;;;;5095365;28;20267;-81
2023/02/23 04:49:07;;;;;;;60.25;27.45;;;9.90;99.90;;;;;;5095154;28;20276;-79
2023/02/23 04:51:34;;;;;;;65.03;28.63;;;10.00;99.90;;;;;;5095000;28;20166;-79
2023/02/23 04:54:01;;;;;;;61.63;28.30;;;10.00;99.90;;;;;;5076712;28;20580;-79
2023/02/23 04:56:27;;;;;;;58.58;28.27;;;9.90;99.90;;;;;;5095070;28;20249;-79
2023/02/23 04:58:53;;;;;;;66.43;27.92;;;10.00;99.90;;;;;;5095186;28;20993;-79
2023/02/23 05:01:20;;;;;;;69.00;28.80;;;10.40;99.90;;;;;;5094529;28;20164;-78
2023/02/23 05:03:50;;;;;;;69.82;28.38;;;10.60;99.90;;;;;;5076762;28;20194;-79
2023/02/23 05:06:18;;;;;;;61.67;27.80;;;10.60;99.90;;;;;;5094842;28;20252;-78
2023/02/23 05:08:44;;;;;;;58.83;28.23;;;10.60;99.90;;;;;;5094652;28;20211;-79
2023/02/23 05:11:10;;;;;;;66.78;29.58;;;10.50;99.90;;;;;;5076968;28;20580;-80
2023/02/23 05:13:36;;;;;;;63.03;28.25;;;10.30;99.90;;;;;;5094794;28;20277;-79
2023/02/23 05:16:02;;;;;;;64.95;29.63;;;10.30;99.90;;;;;;5094949;28;20193;-79
2023/02/23 05:18:28;;;;;;;61.72;27.02;;;10.20;99.90;;;;;;5094428;28;20174;-79
2023/02/23 05:21:05;;;;;;;58.33;28.17;;;10.30;99.90;;;;;;5076486;28;20166;-79
2023/02/23 05:23:33;;;;;;;68.53;27.35;;;10.50;99.90;;;;;;5094369;28;20182;-79
2023/02/23 05:26:03;;;;;;;62.50;28.65;;;10.40;99.90;;;;;;5076617;28;20169;-79
2023/02/23 05:28:29;;;;;;;63.97;27.63;;;10.50;99.90;;;;;;5094490;28;20746;-79
2023/02/23 05:30:55;;;;;;;59.15;26.73;;;10.50;99.90;;;;;;5094718;28;20166;-80
2023/02/23 05:33:21;;;;;;;59.60;27.33;;;10.60;99.90;;;;;;5094290;28;20536;-78
2023/02/23 05:35:47;;;;;;;65.07;28.85;;;10.70;99.90;;;;;;5094281;28;20166;-79
2023/02/23 05:38:13;;;;;;;68.88;29.85;;;10.60;99.90;;;;;;5094393;28;20197;-79
2023/02/23 05:40:39;;;;;;;58.88;26.98;;;10.40;99.90;;;;;;5076490;28;20208;-79
2023/02/23 05:43:05;;;;;;;68.25;30.15;;;10.40;99.90;;;;;;5094305;28;20198;-78
2023/02/23 05:45:30;;;;;;;71.13;29.00;;;10.30;99.90;;;;;;5096390;28;20199;-79
2023/02/23 05:47:56;;;;;;;67.55;28.95;;;10.40;99.90;;;;;;5080123;28;20696;-79
2023/02/23 05:50:22;;;;;;;70.18;30.80;;;10.60;99.90;;;;;;5098905;28;20189;-80
2023/02/23 05:52:47;;;;;;;72.50;29.15;;;10.50;99.90;;;;;;5100068;28;20178;-79
2023/02/23 05:55:14;;;;;;;85.18;31.42;;;10.60;99.90;;;;;;5098675;28;20169;-79
2023/02/23 05:57:40;;;;;;;80.43;30.02;;;10.60;99.90;;;;;;5099477;28;20310;-79
2023/02/23 06:00:07;;;;;;;75.95;32.38;;;10.60;99.90;;;;;;5099443;28;20249;-79
2023/02/23 06:02:33;;;;;;;71.85;31.35;;;10.60;99.90;;;;;;5099746;28;20642;-79
2023/02/23 06:04:59;;;;;;;75.38;31.90;;;10.70;99.90;;;;;;5099582;28;20196;-79
2023/02/23 06:07:25;;;;;;;84.95;32.38;;;10.50;99.90;;;;;;5100066;28;20173;-78
2023/02/23 06:09:51;;;;;;;76.47;31.58;;;10.50;99.90;;;;;;5098986;28;20170;-79
2023/02/23 06:12:16;;;;;;;78.03;32.45;;;10.50;99.90;;;;;;5079447;28;20197;-79
2023/02/23 06:14:42;;;;;;;78.53;31.77;;;10.50;99.90;;;;;;5099599;28;20222;-78
2023/02/23 06:17:08;;;;;;;77.47;32.47;;;10.60;99.90;;;;;;5099669;28;20166;-79
2023/02/23 06:19:33;;;;;;;80.65;31.98;;;10.70;99.90;;;;;;5099593;28;20172;-79
2023/02/23 06:21:59;;;;;;;78.43;33.75;;;10.60;99.90;;;;;;5099699;28;20217;-79
2023/02/23 06:24:25;;;;;;;79.95;32.67;;;10.50;99.90;;;;;;5098231;28;20241;-78
2023/02/23 06:26:51;;;;;;;71.32;30.67;;;10.60;99.90;;;;;;5100867;28;20189;-78
2023/02/23 06:29:16;;;;;;;72.68;31.83;;;10.60;99.90;;;;;;5096240;28;20205;-78
2023/02/23 06:31:42;;;;;;;67.05;29.98;;;10.40;99.90;;;;;;5093350;28;20177;-79
2023/02/23 06:34:10;;;;;;;80.75;31.60;;;10.50;99.90;;;;;;5093064;28;20189;-78
2023/02/23 06:36:36;;;;;;;71.95;31.17;;;10.60;99.90;;;;;;5093402;28;20166;-79
2023/02/23 06:39:02;;;;;;;85.90;32.50;;;10.80;99.90;;;;;;5093112;28;20242;-79
2023/02/23 06:41:28;;;;;;;77.72;32.33;;;10.80;99.90;;;;;;5093140;28;20169;-79
2023/02/23 06:43:54;;;;;;;69.95;30.40;;;10.80;99.90;;;;;;5093029;28;20186;-79
2023/02/23 06:46:20;;;;;;;72.07;30.83;;;10.90;99.90;;;;;;5093044;28;20532;-79
2023/02/23 06:48:45;;;;;;;80.22;31.65;;;10.70;99.90;;;;;;5092551;28;20201;-79
2023/02/23 06:51:11;;;;;;;72.40;30.27;;;10.80;99.90;;;;;;5074830;28;20260;-79
2023/02/23 06:53:37;;;;;;;75.85;31.90;;;10.90;99.90;;;;;;5092795;28;20189;-79
2023/02/23 06:56:03;;;;;;;73.50;32.03;;;10.80;99.90;;;;;;5092988;28;20158;-79
2023/02/23 06:58:29;;;;;;;65.15;29.58;;;10.80;99.90;;;;;;5092763;28;20165;-77
2023/02/23 07:00:55;;;;;;;77.30;30.70;;;10.80;99.90;;;;;;5092936;28;20169;-77
2023/02/23 07:03:22;;;;;;;72.78;29.20;;;10.90;99.90;;;;;;5092779;28;20192;-77
2023/02/23 07:05:49;;;;;;;76.57;31.15;;;11.00;99.90;;;;;;5092904;28;20248;-78
2023/02/23 07:08:15;;;;;;;75.65;32.17;;;11.00;99.90;;;;;;5092434;28;20205;-77
2023/02/23 07:10:41;;;;;;;63.67;29.63;;;11.20;99.90;;;;;;5092800;28;20709;-77
2023/02/23 07:13:07;;;;;;;75.25;30.80;;;11.40;99.90;;;;;;5092825;28;20212;-77
2023/02/23 07:15:37;;;;;;;79.65;31.63;;;11.40;99.90;;;;;;5074628;28;20205;-77
2023/02/23 07:18:03;;;;;;;73.20;31.10;;;11.30;99.90;;;;;;5092135;28;20214;-77
2023/02/23 07:20:30;;;;;;;74.75;32.60;;;11.40;99.90;;;;;;5092666;28;20178;-78
2023/02/23 07:22:55;;;;;;;73.22;30.92;;;11.20;99.90;;;;;;5092198;28;20253;-77
2023/02/23 07:25:21;;;;;;;79.90;32.42;;;11.10;99.90;;;;;;5092378;28;20618;-77
2023/02/23 07:27:47;;;;;;;78.45;31.67;;;11.10;99.90;;;;;;5091834;28;20198;-77
2023/02/23 07:30:13;;;;;;;78.93;33.70;;;11.10;99.90;;;;;;5092362;28;20166;-77
2023/02/23 07:32:39;;;;;;;66.07;29.15;;;11.00;99.90;;;;;;5092398;28;20177;-77
2023/02/23 07:35:05;;;;;;;77.70;33.65;;;11.00;99.90;;;;;;5092420;28;20228;-77
2023/02/23 07:37:31;;;;;;;73.15;32.33;;;11.00;99.90;;;;;;5092521;28;20245;-77
2023/02/23 07:39:57;;;;;;;75.97;31.98;;;11.20;99.90;;;;;;5092296;28;20252;-78
2023/02/23 07:42:23;;;;;;;72.95;31.60;;;11.20;99.90;;;;;;5092103;28;20556;-77
2023/02/23 07:44:48;;;;;;;67.47;30.77;;;11.20;99.90;;;;;;5092373;28;20223;-77
2023/02/23 07:47:14;;;;;;;70.45;31.65;;;11.30;99.90;;;;;;5092085;28;20170;-77
2023/02/23 07:49:40;;;;;;;87.90;35.63;;;11.30;99.90;;;;;;5092298;28;20299;-78
2023/02/23 07:52:05;;;;;;;79.30;33.22;;;11.40;99.90;;;;;;5092265;28;20229;-77
2023/02/23 07:54:32;;;;;;;79.68;33.67;;;11.30;99.90;;;;;;5092024;28;20161;-78
2023/02/23 07:56:58;;;;;;;77.65;34.83;;;11.10;99.90;;;;;;5091985;28;20221;-77
2023/02/23 07:59:24;;;;;;;82.95;34.42;;;11.20;99.90;;;;;;5092523;28;20158;-77
2023/02/23 08:01:50;;;;;;;73.22;32.60;;;11.40;99.90;;;;;;5092217;28;20253;-78
2023/02/23 08:04:16;;;;;;;70.03;30.92;;;11.30;99.90;;;;;;5092578;28;20178;-77
2023/02/23 08:06:42;;;;;;;76.18;33.65;;;11.10;99.90;;;;;;5092113;28;20244;-77
2023/02/23 08:09:09;;;;;;;75.10;32.25;;;11.10;99.90;;;;;;5092202;28;20226;-79
2023/02/23 08:11:35;;;;;;;68.90;30.15;;;11.10;99.90;;;;;;5092126;28;20185;-77
2023/02/23 08:14:01;;;;;;;68.57;30.85;;;11.10;99.90;;;;;;5091825;28;20190;-77
2023/02/23 08:16:31;;;;;;;72.60;31.55;;;11.10;99.90;;;;;;5073910;28;20162;-78
2023/02/23 08:18:58;;;;;;;66.35;31.42;;;11.20;99.90;;;;;;5091722;28;20260;-77
2023/02/23 08:21:24;;;;;;;69.88;31.17;;;11.30;99.90;;;;;;5091586;28;20158;-77
2023/02/23 08:23:50;;;;;;;69.18;31.58;;;11.40;99.90;;;;;;5091638;28;20210;-77
2023/02/23 08:26:16;;;;;;;64.05;30.77;;;11.20;99.90;;;;;;5091783;28;20634;-77
2023/02/23 08:28:44;;;;;;;67.05;32.10;;;11.10;99.90;;;;;;5091719;28;20205;-77
2023/02/23 08:31:11;;;;;;;59.03;29.83;;;11.10;99.90;;;;;;5091752;28;20244;-79
2023/02/23 08:33:38;;;;;;;75.32;32.42;;;11.20;99.90;;;;;;5091349;28;20181;-78
2023/02/23 08:36:05;;;;;;;66.82;30.30;;;11.30;99.90;;;;;;5091718;28;20162;-78
2023/02/23 08:38:30;;;;;;;63.95;30.00;;;11.40;99.90;;;;;;5091720;28;20190;-77
2023/02/23 08:40:59;;;;;;;71.53;31.08;;;11.60;99.90;;;;;;5095018;28;20626;-77
2023/02/23 08:43:25;;;;;;;68.38;29.92;;;11.50;99.90;;;;;;5094673;28;20235;-77
2023/02/23 08:45:51;;;;;;;67.65;29.27;;;11.50;99.90;;;;;;5094838;28;20177;-78
2023/02/23 08:48:16;;;;;;;65.63;30.00;;;11.50;99.90;;;;;;5097140;28;20252;-77
2023/02/23 08:50:42;;;;;;;63.35;30.02;;;11.00;99.90;;;;;;5095342;28;20178;-77
2023/02/23 08:53:07;;;;;;;59.63;28.05;;;11.10;99.90;;;;;;5095116;28;20588;-77
2023/02/23 08:55:34;;;;;;;57.42;28.10;;;11.10;99.90;;;;;;5094902;28;20170;-77
2023/02/23 08:58:00;;;;;;;66.47;29.90;;;11.20;99.90;;;;;;5094900;28;20164;-78
2023/02/23 09:00:26;;;;;;;62.45;30.50;;;11.30;99.90;;;;;;5094775;28;20257;-78
2023/02/23 09:02:51;;;;;;;53.78;28.10;;;11.40;99.90;;;;;;5095021;28;20178;-77
2023/02/23 09:05:17;;;;;;;55.95;26.55;;;11.10;99.90;;;;;;5094849;28;20170;-78
2023/02/23 09:07:43;;;;;;;55.40;27.70;;;11.00;99.90;;;;;;5094950;28;20563;-79
2023/02/23 09:10:12;;;;;;;60.17;27.92;;;11.30;99.90;;;;;;5095119;28;20295;-80
2023/02/23 09:12:38;;;;;;;54.72;27.77;;;11.30;99.90;;;;;;5095156;28;20273;-78
2023/02/23 09:15:04;;;;;;;60.83;26.48;;;11.40;99.90;;;;;;5076528;28;20319;-77
2023/02/23 09:17:30;;;;;;;65.72;28.83;;;11.30;99.90;;;;;;5094670;28;20585;-77
2023/02/23 09:19:55;;;;;;;50.13;25.95;;;10.70;99.90;;;;;;5094986;28;20166;-77
2023/02/23 09:22:21;;;;;;;66.32;27.20;;;10.70;99.90;;;;;;5094548;28;20350;-78
2023/02/23 09:24:46;;;;;;;63.58;26.63;;;10.60;99.90;;;;;;5094628;28;20625;-78
2023/02/23 09:27:13;;;;;;;62.65;29.42;;;10.60;99.90;;;;;;5094835;28;20170;-79
2023/02/23 09:29:45;;;;;;;58.58;28.02;;;10.70;99.90;;;;;;5094776;28;20232;-80
2023/02/23 09:32:11;;;;;;;57.88;26.77;;;10.90;99.90;;;;;;5094845;28;20166;-79
2023/02/23 09:34:36;;;;;;;58.85;27.45;;;11.40;99.90;;;;;;5094721;28;20177;-79
2023/02/23 09:37:03;;;;;;;56.40;26.92;;;11.40;99.90;;;;;;5094417;28;20189;-78
2023/02/23 09:39:28;;;;;;;61.13;26.85;;;11.40;99.90;;;;;;5094225;28;20493;-78
2023/02/23 09:42:12;;;;;;;48.97;25.42;;;10.90;99.90;;;;;;5076905;28;20181;-89
2023/02/23 09:44:59;;;;;;;58.80;26.70;;;10.70;99.90;;;;;;5095052;28;20225;-87
2023/02/23 09:47:46;;;;;;;59.05;26.83;;;10.60;99.90;;;;;;5094283;28;20164;-85
2023/02/23 09:50:19;;;;;;;72.95;30.77;;;11.00;99.90;;;;;;5094582;28;20197;-86
2023/02/23 09:52:51;;;;;;;62.90;29.25;;;11.10;99.90;;;;;;5093242;28;20211;-83
2023/02/23 09:55:17;;;;;;;72.50;31.85;;;10.90;99.90;;;;;;5093996;28;20181;-85
2023/02/23 09:57:45;;;;;;;71.85;33.38;;;10.90;99.90;;;;;;5094418;28;20521;-84
2023/02/23 10:00:18;;;;;;;71.43;32.90;;;11.00;99.90;;;;;;5094285;28;20216;-77
2023/02/23 10:03:01;;;;;;;70.88;33.55;;;10.90;99.90;;;;;;5093646;28;20564;-78
2023/02/23 10:05:30;;;;;;;66.10;30.88;;;11.20;99.90;;;;;;5093511;28;20162;-79
2023/02/23 10:08:06;;;;;;;74.03;33.13;;;11.40;99.90;;;;;;5075234;28;20197;-78
2023/02/23 10:10:53;;;;;;;71.25;30.83;;;11.50;99.90;;;;;;5093014;28;20230;-79
2023/02/23 10:13:34;;;;;;;73.43;32.42;;;11.40;99.90;;;;;;5093579;28;20178;-78
2023/02/23 10:16:20;;;;;;;67.18;30.70;;;11.40;99.90;;;;;;5093441;28;20194;-77
2023/02/23 10:19:02;;;;;;;63.85;30.10;;;11.50;99.90;;;;;;5093292;28;20168;-78
2023/02/23 10:21:48;;;;;;;68.63;31.08;;;11.70;99.90;;;;;;5093452;28;20165;-79
2023/02/23 10:24:24;;;;;;;65.30;28.92;;;11.70;99.90;;;;;;5073847;28;20542;-79
2023/02/23 10:27:18;;;;;;;59.35;28.77;;;11.70;99.90;;;;;;5093651;28;20226;-79
2023/02/23 10:30:00;;;;;;;60.08;28.42;;;12.10;99.90;;;;;;5093582;28;20298;-80
2023/02/23 10:32:38;;;;;;;57.95;27.63;;;12.20;99.90;;;;;;5075508;28;20228;-85
2023/02/23 10:35:13;;;;;;;61.40;26.75;;;12.40;99.90;;;;;;5074924;28;20162;-79
2023/02/23 10:37:39;;;;;;;54.58;25.23;;;12.50;99.90;;;;;;5093405;28;20271;-84
2023/02/23 10:40:07;;;;;;;53.75;25.65;;;12.40;99.90;;;;;;5093158;28;20281;-77
2023/02/23 10:42:33;;;;;;;56.17;27.45;;;12.30;99.90;;;;;;5093042;28;20185;-78
2023/02/23 10:44:59;;;;;;;55.00;24.15;;;12.60;99.90;;;;;;5092980;28;20170;-77
2023/02/23 10:47:35;;;;;;;44.30;23.55;;;12.90;99.90;;;;;;5092855;28;20177;-79
2023/02/23 10:50:02;;;;;;;53.45;22.45;;;12.90;99.90;;;;;;5092889;28;20189;-77
2023/02/23 10:52:43;;;;;;;64.15;25.85;;;12.60;99.90;;;;;;5093141;28;20185;-77
2023/02/23 10:55:27;;;;;;;48.10;24.83;;;12.40;99.90;;;;;;5093363;28;20170;-80
2023/02/23 10:58:17;;;;;;;46.95;23.30;;;12.30;99.90;;;;;;5093344;28;20170;-82
2023/02/23 11:00:58;;;;;;;53.20;24.38;;;12.10;99.90;;;;;;5093407;28;20649;-84
2023/02/23 11:03:38;;;;;;;56.20;24.08;;;11.60;99.90;;;;;;5092819;28;20646;-78
2023/02/23 11:06:04;;;;;;;48.80;23.52;;;11.60;99.90;;;;;;5092840;28;20189;-77
2023/02/23 11:08:35;;;;;;;48.83;25.08;;;11.70;99.90;;;;;;5092928;28;20534;-84
2023/02/23 11:11:00;;;;;;;51.83;24.38;;;11.90;99.90;;;;;;5093747;28;20510;-88
2023/02/23 11:13:28;;;;;;;58.22;25.75;;;11.80;99.90;;;;;;5093215;28;20189;-79
2023/02/23 11:16:04;;;;;;;52.42;23.63;;;12.10;99.90;;;;;;5092657;28;20657;-77
2023/02/23 11:18:30;;;;;;;53.20;23.73;;;12.10;99.90;;;;;;5092568;28;20253;-80
2023/02/23 11:20:57;;;;;;;49.88;22.42;;;12.00;99.90;;;;;;5092938;28;20161;-87
2023/02/23 11:23:29;;;;;;;51.00;21.45;;;11.60;99.90;;;;;;5091461;28;20193;-84
2023/02/23 11:26:05;;;;;;;45.42;21.48;;;11.70;99.90;;;;;;5091972;28;20174;-87
2023/02/23 11:28:39;;;;;;;49.65;22.63;;;11.80;99.90;;;;;;5093012;28;20288;-86
2023/02/23 11:31:19;;;;;;;59.03;23.77;;;11.90;99.90;;;;;;5093468;28;20164;-83
2023/02/23 11:33:46;;;;;;;46.35;21.70;;;11.80;99.90;;;;;;5092225;28;20212;-78
2023/02/23 11:36:28;;;;;;;51.95;22.58;;;11.70;99.90;;;;;;5092588;28;20197;-79
2023/02/23 11:39:13;;;;;;;43.20;23.13;;;11.40;99.90;;;;;;5074539;28;20197;-79
2023/02/23 11:41:39;;;;;;;42.60;21.75;;;11.40;99.90;;;;;;5074128;28;20162;-79
2023/02/23 11:44:05;;;;;;;48.20;21.85;;;11.40;99.90;;;;;;5092719;28;20537;-86
2023/02/23 11:46:35;;;;;;;46.22;22.75;;;11.40;99.90;;;;;;5092278;28;20244;-85
2023/02/23 11:49:07;;;;;;;46.47;22.48;;;11.50;99.90;;;;;;5108971;22;20193;-76
2023/02/23 11:51:44;;;;;;;46.92;22.63;;;11.60;99.90;;;;;;5092519;28;20185;-78
2023/02/23 11:54:21;;;;;;;62.72;24.25;;;11.90;99.90;;;;;;5092039;28;20188;-78
2023/02/23 11:56:53;;;;;;;45.42;23.95;;;12.10;99.90;;;;;;5074161;28;20595;-78
2023/02/23 11:59:29;;;;;;;57.47;22.35;;;12.40;99.90;;;;;;5074246;28;20176;-78
2023/02/23 12:02:18;;;;;;;55.33;23.27;;;12.80;99.90;;;;;;5092657;28;20183;-78
2023/02/23 12:04:48;;;;;;;55.17;23.75;;;12.90;99.90;;;;;;5092303;28;20692;-78
2023/02/23 12:07:37;;;;;;;50.05;22.27;;;12.80;99.90;;;;;;5092260;28;20166;-79
2023/02/23 12:10:21;;;;;;;48.60;20.98;;;12.80;99.90;;;;;;5092418;28;20177;-78
2023/02/23 12:13:17;;;;;;;53.58;22.50;;;12.70;99.90;;;;;;5092636;28;20613;-78
2023/02/23 12:15:59;;;;;;;46.97;22.25;;;12.90;99.90;;;;;;5094765;28;20235;-78
2023/02/23 12:18:54;;;;;;;44.33;21.55;;;12.80;99.90;;;;;;5095987;28;20636;-78
2023/02/23 12:21:29;;;;;;;44.20;21.65;;;13.00;99.90;;;;;;5096316;28;20170;-78
2023/02/23 12:24:04;;;;;;;46.78;23.63;;;13.10;99.90;;;;;;5096010;28;20204;-78
2023/02/23 12:26:35;;;;;;;47.30;25.00;;;13.20;99.90;;;;;;5095807;28;20177;-78
2023/02/23 12:29:33;;;;;;;45.80;24.25;;;13.10;99.90;;;;;;5095858;28;20209;-78
2023/02/23 12:32:14;;;;;;;62.75;27.00;;;13.00;99.90;;;;;;5096335;28;20155;-76
2023/02/23 12:34:45;;;;;;;53.92;25.55;;;12.90;99.90;;;;;;5095764;28;20615;-76
2023/02/23 12:37:28;;;;;;;47.97;26.65;;;13.00;99.90;;;;;;5096160;28;20169;-77
2023/02/23 12:40:15;;;;;;;55.72;28.25;;;12.90;99.90;;;;;;5095724;28;20176;-77
2023/02/23 12:42:55;;;;;;;63.30;31.05;;;13.30;99.90;;;;;;5095527;28;20703;-77
2023/02/23 12:45:34;;;;;;;56.20;30.48;;;13.20;99.90;;;;;;5095780;28;20625;-76
2023/02/23 12:48:05;;;;;;;57.05;27.73;;;12.60;99.90;;;;;;5095301;28;20193;-77
2023/02/23 12:50:33;;;;;;;64.78;30.60;;;12.30;99.90;;;;;;5095337;28;20204;-78
2023/02/23 12:53:32;;;;;;;58.10;29.60;;;12.30;99.90;;;;;;5095240;28;20259;-76
2023/02/23 12:56:20;;;;;;;61.20;31.30;;;12.20;99.90;;;;;;5095571;28;20501;-76
2023/02/23 12:59:20;;;;;;;59.40;29.90;;;12.20;99.90;;;;;;5095424;28;20177;-76
2023/02/23 13:01:57;;;;;;;60.55;30.08;;;12.20;99.90;;;;;;5095305;28;20675;-77
2023/02/23 13:04:41;;;;;;;62.85;31.25;;;12.20;99.90;;;;;;5095304;28;20280;-77
2023/02/23 13:07:12;;;;;;;61.10;29.88;;;12.10;99.90;;;;;;5095131;28;20162;-77
2023/02/23 13:09:40;;;;;;;72.32;29.98;;;12.00;99.90;;;;;;5095008;28;20202;-77
2023/02/23 13:12:18;;;;;;;74.47;31.58;;;12.00;99.90;;;;;;5094968;28;20162;-77
2023/02/23 13:15:10;;;;;;;61.35;30.77;;;12.00;99.90;;;;;;5102152;28;20174;-76
2023/02/23 13:18:05;;;;;;;62.35;30.35;;;12.20;99.90;;;;;;5078124;28;20197;-77
2023/02/23 13:20:54;;;;;;;68.22;27.63;;;11.90;99.90;;;;;;5095087;28;20284;-77
2023/02/23 13:23:47;;;;;;;63.80;29.20;;;12.10;99.90;;;;;;5094967;28;20178;-78
2023/02/23 13:26:27;;;;;;;62.45;29.30;;;12.20;99.90;;;;;;5075234;28;20192;-78
2023/02/23 13:29:09;;;;;;;57.33;27.30;;;12.10;99.90;;;;;;5098070;28;20214;-77
2023/02/23 13:31:37;;;;;;;49.13;24.23;;;12.00;99.90;;;;;;5099591;28;20169;-77
2023/02/23 13:34:08;;;;;;;42.53;21.70;;;11.70;99.90;;;;;;5095971;28;20194;-78
2023/02/23 13:36:35;;;;;;;46.33;21.45;;;11.60;99.90;;;;;;5096004;28;20672;-77
2023/02/23 13:39:19;;;;;;;38.95;21.40;;;11.60;99.90;;;;;;5098303;28;20634;-88
2023/02/23 13:41:48;;;;;;;47.78;22.38;;;11.80;99.90;;;;;;5100294;28;20177;-78
2023/02/23 13:44:22;;;;;;;48.83;20.88;;;11.80;99.90;;;;;;5107876;28;20225;-77
2023/02/23 13:47:01;;;;;;;49.08;21.38;;;11.90;99.90;;;;;;5113156;28;20455;-78
2023/02/23 13:49:51;;;;;;;43.75;21.00;;;11.90;99.90;;;;;;5095889;28;20209;-78
2023/02/23 13:52:39;;;;;;;52.38;23.88;;;11.70;99.90;;;;;;5098808;28;20184;-78
2023/02/23 13:55:24;;;;;;;61.00;23.23;;;11.80;99.90;;;;;;5096970;28;20158;-84
2023/02/23 13:58:04;;;;;;;44.28;20.30;;;12.20;99.90;;;;;;5096124;28;20173;-78
2023/02/23 14:00:32;;;;;;;43.80;20.70;;;12.10;99.90;;;;;;5094407;28;20214;-79
2023/02/23 14:03:03;;;;;;;42.83;20.20;;;11.90;99.90;;;;;;5094631;28;20182;-78
2023/02/23 14:05:29;;;;;;;38.53;18.98;;;12.00;99.90;;;;;;5095242;28;20178;-79
2023/02/23 14:08:01;;;;;;;52.90;20.33;;;12.00;99.90;;;;;;5094285;28;20529;-83
2023/02/23 14:10:42;;;;;;;48.53;18.02;;;12.10;99.90;;;;;;5076587;28;20174;-80
2023/02/23 14:13:16;;;;;;;44.00;19.17;;;12.20;99.90;;;;;;5094124;28;20719;-79
2023/02/23 14:15:48;;;;;;;36.33;19.10;;;12.40;99.90;;;;;;5094100;28;20257;-81